createdAt,value
2022-09-06T00:00:49.358Z,1.64
2022-09-06T00:02:46.681Z,1.64
2022-09-06T00:04:49.846Z,1.64
2022-09-06T00:06:46.441Z,1.64
2022-09-06T00:08:46.634Z,1.64
2022-09-06T00:10:47.141Z,1.64
2022-09-06T00:12:46.710Z,1.64
2022-09-06T00:14:46.701Z,1.64
2022-09-06T00:16:52.759Z,1.64
2022-09-06T00:18:46.451Z,1.64
2022-09-06T00:20:46.631Z,1.64
2022-09-06T00:22:46.544Z,1.64
2022-09-06T00:24:47.013Z,1.64
2022-09-06T00:26:46.764Z,1.64
2022-09-06T00:28:47.170Z,1.58
2022-09-06T00:30:46.546Z,1.58
2022-09-06T00:32:46.993Z,1.58
2022-09-06T00:34:46.565Z,1.58
2022-09-06T00:36:46.414Z,1.58
2022-09-06T00:38:46.943Z,1.58
2022-09-06T00:40:46.926Z,1.64
2022-09-06T00:42:47.164Z,1.64
2022-09-06T00:44:46.539Z,1.64
2022-09-06T00:46:46.830Z,1.64
2022-09-06T00:48:46.889Z,1.64
2022-09-06T00:50:46.770Z,1.64
2022-09-06T00:52:46.715Z,1.7
2022-09-06T00:54:47.119Z,1.7
2022-09-06T00:56:46.299Z,1.7
2022-09-06T00:58:46.333Z,1.58
2022-09-06T01:00:49.730Z,1.58
2022-09-06T01:02:48.024Z,1.58
2022-09-06T01:04:46.509Z,1.64
2022-09-06T01:06:46.763Z,1.64
2022-09-06T01:08:46.382Z,1.64
2022-09-06T01:10:46.761Z,1.64
2022-09-06T01:12:46.684Z,1.64
2022-09-06T01:14:46.754Z,1.64
2022-09-06T01:16:46.973Z,1.64
2022-09-06T01:18:46.235Z,1.64
2022-09-06T01:20:46.209Z,1.64
2022-09-06T01:22:46.640Z,1.64
2022-09-06T01:24:46.430Z,1.64
2022-09-06T01:26:46.498Z,1.64
2022-09-06T01:28:46.468Z,1.64
2022-09-06T01:30:46.503Z,1.64
2022-09-06T01:32:46.681Z,1.64
2022-09-06T01:34:46.376Z,1.64
2022-09-06T01:37:08.453Z,1.64
2022-09-06T01:38:47.159Z,1.64
2022-09-06T01:40:46.709Z,1.64
2022-09-06T01:42:46.260Z,1.64
2022-09-06T01:44:46.883Z,1.64
2022-09-06T01:46:46.670Z,1.64
2022-09-06T01:48:46.239Z,1.64
2022-09-06T01:50:46.484Z,1.64
2022-09-06T01:52:46.494Z,1.64
2022-09-06T01:54:46.392Z,1.64
2022-09-06T01:56:46.936Z,1.64
2022-09-06T01:58:46.973Z,1.64
2022-09-06T02:00:49.118Z,1.64
2022-09-06T02:02:46.759Z,1.64
2022-09-06T02:04:47.012Z,1.64
2022-09-06T02:06:46.808Z,1.64
2022-09-06T02:08:47.198Z,1.64
2022-09-06T02:10:47.023Z,1.64
2022-09-06T02:12:46.231Z,1.64
2022-09-06T02:14:46.709Z,1.64
2022-09-06T02:16:47.344Z,1.58
2022-09-06T02:18:47.358Z,1.58
2022-09-06T02:20:46.538Z,1.58
2022-09-06T02:22:47.064Z,1.58
2022-09-06T02:24:47.236Z,1.58
2022-09-06T02:26:46.430Z,1.58
2022-09-06T02:28:47.201Z,1.58
2022-09-06T02:30:46.781Z,1.58
2022-09-06T02:32:46.661Z,1.58
2022-09-06T02:34:47.014Z,1.58
2022-09-06T02:36:46.548Z,1.58
2022-09-06T02:38:46.694Z,1.58
2022-09-06T02:40:46.770Z,1.58
2022-09-06T02:42:46.728Z,1.58
2022-09-06T02:44:46.914Z,1.58
2022-09-06T02:46:47.430Z,1.58
2022-09-06T02:48:46.833Z,1.58
2022-09-06T02:50:46.906Z,1.58
2022-09-06T02:52:46.839Z,1.58
2022-09-06T02:54:46.795Z,1.58
2022-09-06T02:56:51.532Z,1.58
2022-09-06T02:58:47.261Z,1.58
2022-09-06T03:00:49.140Z,1.58
2022-09-06T03:02:47.127Z,1.58
2022-09-06T03:04:46.784Z,1.58
2022-09-06T03:06:46.280Z,1.58
2022-09-06T03:08:46.449Z,1.58
2022-09-06T03:10:47.016Z,1.58
2022-09-06T03:12:46.682Z,1.58
2022-09-06T03:14:47.181Z,1.58
2022-09-06T03:16:46.714Z,1.58
2022-09-06T03:18:46.672Z,1.58
2022-09-06T03:20:48.616Z,1.58
2022-09-06T03:22:46.538Z,1.58
2022-09-06T03:24:46.501Z,1.58
2022-09-06T03:26:46.589Z,1.58
2022-09-06T03:28:46.512Z,1.58
2022-09-06T03:30:47.137Z,1.58
2022-09-06T03:32:46.422Z,1.58
2022-09-06T03:34:47.012Z,1.58
2022-09-06T03:36:46.560Z,1.58
2022-09-06T03:38:47.201Z,1.58
2022-09-06T03:40:46.970Z,1.58
2022-09-06T03:42:46.601Z,1.58
2022-09-06T03:44:46.296Z,1.58
2022-09-06T03:46:46.922Z,1.58
2022-09-06T03:48:46.425Z,1.52
2022-09-06T03:50:46.778Z,1.52
2022-09-06T03:52:46.823Z,1.52
2022-09-06T03:54:47.070Z,1.52
2022-09-06T03:56:46.732Z,1.52
2022-09-06T03:58:47.042Z,1.52
2022-09-06T04:00:49.336Z,1.52
2022-09-06T04:02:47.046Z,1.52
2022-09-06T04:04:47.170Z,1.52
2022-09-06T04:06:46.881Z,1.52
2022-09-06T04:08:46.595Z,1.52
2022-09-06T04:10:46.811Z,1.52
2022-09-06T04:12:46.382Z,1.52
2022-09-06T04:14:47.169Z,1.52
2022-09-06T04:16:47.019Z,1.52
2022-09-06T04:18:52.407Z,1.52
2022-09-06T04:20:47.096Z,1.52
2022-09-06T04:22:46.660Z,1.52
2022-09-06T04:24:47.192Z,1.52
2022-09-06T04:26:47.150Z,1.52
2022-09-06T04:28:46.939Z,1.52
2022-09-06T04:30:46.443Z,1.52
2022-09-06T04:32:46.748Z,1.52
2022-09-06T04:34:46.417Z,1.52
2022-09-06T04:36:48.311Z,1.52
2022-09-06T04:38:46.627Z,1.52
2022-09-06T04:40:46.904Z,1.52
2022-09-06T04:42:47.180Z,1.52
2022-09-06T04:44:46.811Z,1.52
2022-09-06T04:46:46.553Z,1.52
2022-09-06T04:48:46.978Z,1.52
2022-09-06T04:50:47.189Z,1.52
2022-09-06T04:52:52.521Z,1.52
2022-09-06T04:54:47.176Z,1.52
2022-09-06T04:56:47.150Z,1.52
2022-09-06T04:58:47.059Z,1.52
2022-09-06T05:00:47.776Z,1.52
2022-09-06T05:02:47.074Z,1.52
2022-09-06T05:04:47.388Z,1.52
2022-09-06T05:06:46.761Z,1.52
2022-09-06T05:08:46.716Z,1.52
2022-09-06T05:10:46.902Z,1.52
2022-09-06T05:12:46.648Z,1.52
2022-09-06T05:14:46.702Z,1.52
2022-09-06T05:16:47.171Z,1.52
2022-09-06T05:18:50.545Z,1.52
2022-09-06T05:20:47.149Z,1.52
2022-09-06T05:22:46.450Z,1.52
2022-09-06T05:24:46.752Z,1.52
2022-09-06T05:26:46.421Z,1.52
2022-09-06T05:28:47.236Z,1.52
2022-09-06T05:30:46.734Z,1.52
2022-09-06T05:32:46.712Z,1.52
2022-09-06T05:34:46.823Z,1.52
2022-09-06T05:36:47.121Z,1.52
2022-09-06T05:38:46.788Z,1.52
2022-09-06T05:40:47.350Z,1.52
2022-09-06T05:42:52.814Z,1.52
2022-09-06T05:44:46.860Z,1.52
2022-09-06T05:46:47.183Z,1.52
2022-09-06T05:48:48.668Z,1.52
2022-09-06T05:50:47.098Z,1.52
2022-09-06T05:52:47.072Z,1.46
2022-09-06T05:54:46.639Z,1.46
2022-09-06T05:56:47.010Z,1.46
2022-09-06T05:58:47.005Z,1.46
2022-09-06T06:00:49.443Z,1.46
2022-09-06T06:02:52.461Z,1.46
2022-09-06T06:04:46.702Z,1.46
2022-09-06T06:06:46.907Z,1.46
2022-09-06T06:08:46.464Z,1.46
2022-09-06T06:10:50.015Z,1.46
2022-09-06T06:12:46.735Z,1.46
2022-09-06T06:14:46.178Z,1.46
2022-09-06T06:16:47.047Z,1.46
2022-09-06T06:18:51.309Z,1.46
2022-09-06T06:20:46.636Z,1.46
2022-09-06T06:22:46.796Z,1.46
2022-09-06T06:24:46.790Z,1.46
2022-09-06T06:26:46.432Z,1.46
2022-09-06T06:28:46.845Z,1.46
2022-09-06T06:30:52.127Z,1.46
2022-09-06T06:32:46.807Z,1.46
2022-09-06T06:34:46.728Z,1.46
2022-09-06T06:36:46.286Z,1.46
2022-09-06T06:38:46.791Z,1.46
2022-09-06T06:40:47.112Z,1.46
2022-09-06T06:42:46.319Z,1.46
2022-09-06T06:44:46.717Z,1.46
2022-09-06T06:46:47.360Z,1.46
2022-09-06T06:48:46.427Z,1.46
2022-09-06T06:50:46.916Z,1.46
2022-09-06T06:52:46.300Z,1.46
2022-09-06T06:54:46.805Z,1.46
2022-09-06T06:56:46.686Z,1.46
2022-09-06T06:58:47.156Z,1.46
2022-09-06T07:00:51.098Z,1.46
2022-09-06T07:02:47.489Z,1.46
2022-09-06T07:04:47.028Z,1.46
2022-09-06T07:08:01.958Z,1.46
2022-09-06T07:11:17.870Z,1.46
2022-09-06T07:14:46.884Z,1.46
2022-09-06T07:18:46.902Z,1.46
2022-09-06T07:22:50.931Z,1.46
2022-09-06T07:24:49.977Z,1.46
2022-09-06T07:28:50.985Z,1.46
2022-09-06T07:30:46.684Z,1.46
2022-09-06T07:32:54.393Z,1.46
2022-09-06T07:34:47.156Z,1.46
2022-09-06T07:36:46.831Z,1.46
2022-09-06T07:38:47.054Z,1.46
2022-09-06T07:40:47.137Z,1.46
2022-09-06T07:42:47.985Z,1.46
2022-09-06T07:44:46.690Z,1.46
2022-09-06T07:46:47.148Z,1.46
2022-09-06T07:48:46.699Z,1.46
2022-09-06T07:51:22.408Z,1.46
2022-09-06T07:54:37.268Z,1.46
2022-09-06T07:55:13.580Z,1.46
2022-09-06T07:58:46.227Z,1.46
2022-09-06T08:02:46.612Z,1.46
2022-09-06T08:10:50.821Z,1.46
2022-09-06T08:12:46.298Z,1.46
2022-09-06T08:14:46.906Z,1.46
2022-09-06T08:16:46.785Z,1.46
2022-09-06T08:18:46.575Z,1.46
2022-09-06T08:20:47.013Z,1.46
2022-09-06T08:22:47.040Z,1.46
2022-09-06T08:24:46.341Z,1.46
2022-09-06T08:26:46.542Z,1.46
2022-09-06T08:28:51.153Z,1.46
2022-09-06T08:30:47.093Z,1.46
2022-09-06T08:32:47.311Z,1.46
2022-09-06T08:34:46.393Z,1.46
2022-09-06T08:36:47.064Z,1.46
2022-09-06T08:38:46.780Z,1.46
2022-09-06T08:40:47.066Z,1.46
2022-09-06T08:42:46.246Z,1.46
2022-09-06T08:45:32.532Z,1.46
2022-09-06T08:46:47.397Z,1.46
2022-09-06T08:48:46.648Z,1.46
2022-09-06T08:50:46.290Z,1.46
2022-09-06T08:53:06.118Z,1.46
2022-09-06T08:54:46.792Z,1.46
2022-09-06T08:56:46.361Z,1.46
2022-09-06T08:58:46.700Z,1.46
2022-09-06T09:00:56.440Z,1.46
2022-09-06T09:02:47.331Z,1.46
2022-09-06T09:04:46.371Z,1.46
2022-09-06T09:06:47.308Z,1.46
2022-09-06T09:08:46.549Z,1.46
2022-09-06T09:10:46.829Z,1.46
2022-09-06T09:12:46.824Z,1.46
2022-09-06T09:14:46.915Z,1.46
2022-09-06T09:16:47.348Z,1.46
2022-09-06T09:18:47.054Z,1.46
2022-09-06T09:20:47.113Z,1.46
2022-09-06T09:22:46.517Z,1.46
2022-09-06T09:24:46.411Z,1.46
2022-09-06T09:26:46.710Z,1.46
2022-09-06T09:28:47.196Z,1.46
2022-09-06T09:31:24.219Z,1.52
2022-09-06T09:32:46.720Z,1.52
2022-09-06T09:34:46.856Z,1.52
2022-09-06T09:38:56.238Z,1.52
2022-09-06T09:40:47.088Z,1.52
2022-09-06T09:42:46.402Z,1.52
2022-09-06T09:44:50.044Z,1.52
2022-09-06T09:46:46.732Z,1.52
2022-09-06T09:48:47.333Z,1.52
2022-09-06T09:50:46.556Z,1.52
2022-09-06T09:52:46.721Z,1.52
2022-09-06T09:54:47.025Z,1.52
2022-09-06T09:56:46.884Z,1.52
2022-09-06T09:58:46.550Z,1.52
2022-09-06T10:00:49.818Z,1.46
2022-09-06T10:02:47.021Z,1.46
2022-09-06T10:05:17.925Z,1.46
2022-09-06T10:07:33.292Z,1.46
2022-09-06T10:08:47.280Z,1.46
2022-09-06T10:10:46.865Z,1.46
2022-09-06T10:12:46.898Z,1.46
2022-09-06T10:14:47.122Z,1.4
2022-09-06T10:16:46.865Z,1.4
2022-09-06T10:18:46.644Z,1.46
2022-09-06T10:20:46.757Z,1.46
2022-09-06T10:22:47.075Z,1.46
2022-09-06T10:25:13.377Z,1.46
2022-09-06T10:26:47.121Z,1.46
2022-09-06T10:28:57.035Z,1.46
2022-09-06T10:30:46.556Z,1.46
2022-09-06T10:32:46.167Z,1.46
2022-09-06T10:34:47.204Z,1.46
2022-09-06T10:36:46.334Z,1.46
2022-09-06T10:38:47.279Z,1.46
2022-09-06T10:40:46.810Z,1.46
2022-09-06T10:42:47.116Z,1.46
2022-09-06T10:44:46.736Z,1.46
2022-09-06T10:46:47.525Z,1.46
2022-09-06T10:48:49.133Z,1.46
2022-09-06T10:50:47.028Z,1.46
2022-09-06T10:52:47.302Z,1.46
2022-09-06T10:54:47.126Z,1.4
2022-09-06T10:56:46.755Z,1.4
2022-09-06T10:59:51.855Z,1.4
2022-09-06T11:02:48.579Z,1.4
2022-09-06T11:06:51.223Z,1.34
2022-09-06T11:09:20.712Z,1.34
2022-09-06T11:10:47.200Z,1.34
2022-09-06T11:12:46.532Z,1.34
2022-09-06T11:14:50.813Z,1.34
2022-09-06T11:16:47.084Z,1.34
2022-09-06T11:18:47.042Z,1.34
2022-09-06T11:20:53.811Z,1.34
2022-09-06T11:22:46.726Z,1.34
2022-09-06T11:24:46.979Z,1.4
2022-09-06T11:26:46.228Z,1.4
2022-09-06T11:28:46.497Z,1.4
2022-09-06T11:30:47.133Z,1.4
2022-09-06T11:33:03.538Z,1.4
2022-09-06T11:34:46.529Z,1.4
2022-09-06T11:36:47.045Z,1.34
2022-09-06T11:38:47.024Z,1.34
2022-09-06T11:41:16.898Z,1.34
2022-09-06T11:42:47.076Z,1.34
2022-09-06T11:44:46.761Z,1.34
2022-09-06T11:46:53.903Z,1.34
2022-09-06T11:48:46.630Z,1.34
2022-09-06T11:50:46.882Z,1.34
2022-09-06T11:52:47.122Z,1.34
2022-09-06T11:54:46.498Z,1.34
2022-09-06T11:56:46.994Z,1.34
2022-09-06T11:58:46.399Z,1.34
2022-09-06T12:00:48.978Z,1.4
2022-09-06T12:02:47.770Z,1.4
2022-09-06T12:04:46.224Z,1.4
2022-09-06T12:06:46.981Z,1.34
2022-09-06T12:08:47.205Z,1.4
2022-09-06T12:10:46.505Z,1.4
2022-09-06T12:12:50.839Z,1.4
2022-09-06T12:14:46.386Z,1.4
2022-09-06T12:16:47.120Z,1.4
2022-09-06T12:18:46.583Z,1.4
2022-09-06T12:20:47.020Z,1.4
2022-09-06T12:22:46.627Z,1.4
2022-09-06T12:24:46.731Z,1.4
2022-09-06T12:26:49.700Z,1.46
2022-09-06T12:28:46.659Z,1.46
2022-09-06T12:30:46.662Z,1.46
2022-09-06T12:32:48.704Z,1.46
2022-09-06T12:34:47.213Z,1.46
2022-09-06T12:36:52.432Z,1.46
2022-09-06T12:38:47.195Z,1.46
2022-09-06T12:40:47.154Z,1.46
2022-09-06T12:42:46.292Z,1.46
2022-09-06T12:44:46.877Z,1.46
2022-09-06T12:46:47.552Z,1.46
2022-09-06T12:48:46.776Z,1.46
2022-09-06T12:50:46.375Z,1.46
2022-09-06T12:52:46.821Z,1.46
2022-09-06T12:54:46.778Z,1.46
2022-09-06T12:56:46.816Z,1.46
2022-09-06T12:58:46.850Z,1.46
2022-09-06T13:00:49.053Z,1.46
2022-09-06T13:02:47.330Z,1.46
2022-09-06T13:04:46.423Z,1.46
2022-09-06T13:06:49.964Z,1.46
2022-09-06T13:08:46.866Z,1.46
2022-09-06T13:10:46.553Z,1.58
2022-09-06T13:12:47.022Z,1.58
2022-09-06T13:14:48.468Z,1.58
2022-09-06T13:16:47.455Z,1.52
2022-09-06T13:18:47.168Z,1.52
2022-09-06T13:20:46.699Z,1.52
2022-09-06T13:22:46.213Z,1.52
2022-09-06T13:24:47.407Z,1.52
2022-09-06T13:26:47.025Z,1.52
2022-09-06T13:28:47.287Z,1.58
2022-09-06T13:30:49.719Z,1.58
2022-09-06T13:32:46.920Z,1.58
2022-09-06T13:34:47.165Z,1.58
2022-09-06T13:36:47.112Z,1.58
2022-09-06T13:38:46.886Z,1.58
2022-09-06T13:41:17.893Z,1.58
2022-09-06T13:42:46.903Z,1.58
2022-09-06T13:44:47.062Z,1.58
2022-09-06T13:46:47.640Z,1.58
2022-09-06T13:49:14.224Z,1.58
2022-09-06T13:50:50.322Z,1.58
2022-09-06T13:52:46.561Z,1.58
2022-09-06T13:54:46.332Z,1.58
2022-09-06T13:56:46.835Z,1.58
2022-09-06T13:58:46.900Z,1.58
2022-09-06T14:00:48.696Z,1.58
2022-09-06T14:02:46.603Z,1.58
2022-09-06T14:04:46.820Z,1.52
2022-09-06T14:06:48.378Z,1.52
2022-09-06T14:09:17.437Z,1.58
2022-09-06T14:10:46.759Z,1.58
2022-09-06T14:12:46.277Z,1.58
2022-09-06T14:14:46.779Z,1.58
2022-09-06T14:16:47.390Z,1.58
2022-09-06T14:18:48.551Z,1.58
2022-09-06T14:20:47.152Z,1.58
2022-09-06T14:22:46.740Z,1.58
2022-09-06T14:24:49.757Z,1.58
2022-09-06T14:26:46.474Z,1.58
2022-09-06T14:28:46.465Z,1.58
2022-09-06T14:30:46.955Z,1.58
2022-09-06T14:32:46.229Z,1.58
2022-09-06T14:34:46.688Z,1.58
2022-09-06T14:36:47.008Z,1.58
2022-09-06T14:38:47.086Z,1.58
2022-09-06T14:40:46.941Z,1.58
2022-09-06T14:42:50.323Z,1.58
2022-09-06T14:44:47.040Z,1.58
2022-09-06T14:46:47.910Z,1.58
2022-09-06T14:48:52.824Z,1.58
2022-09-06T14:50:46.856Z,1.58
2022-09-06T14:52:46.842Z,1.58
2022-09-06T14:54:51.745Z,1.58
2022-09-06T14:56:46.880Z,1.58
2022-09-06T14:58:46.267Z,1.64
2022-09-06T15:00:46.468Z,1.64
2022-09-06T15:02:47.269Z,1.64
2022-09-06T15:04:46.311Z,1.58
2022-09-06T15:06:46.898Z,1.58
2022-09-06T15:10:46.639Z,1.64
2022-09-06T15:14:46.312Z,1.64
2022-09-06T15:18:46.640Z,1.64
2022-09-06T15:22:46.304Z,1.64
2022-09-06T15:26:47.077Z,1.64
2022-09-06T15:30:46.910Z,1.64
2022-09-06T15:34:46.733Z,1.58
2022-09-06T15:38:47.037Z,1.58
2022-09-06T15:42:46.778Z,1.64
2022-09-06T15:46:47.123Z,1.58
2022-09-06T15:51:12.610Z,1.58
2022-09-06T15:54:46.919Z,1.58
2022-09-06T15:58:46.935Z,1.64
2022-09-06T16:02:46.876Z,1.64
2022-09-06T16:07:14.030Z,1.64
2022-09-06T16:10:46.330Z,1.64
2022-09-06T16:14:47.059Z,1.64
2022-09-06T16:18:46.294Z,1.64
2022-09-06T16:22:46.619Z,1.64
2022-09-06T16:26:46.343Z,1.64
2022-09-06T16:30:47.109Z,1.64
2022-09-06T16:34:47.206Z,1.64
2022-09-06T16:38:47.511Z,1.64
2022-09-06T16:42:46.530Z,1.64
2022-09-06T16:46:47.297Z,1.64
2022-09-06T16:50:47.198Z,1.64
2022-09-06T16:54:46.640Z,1.64
2022-09-06T16:58:47.247Z,1.64
2022-09-06T17:02:47.752Z,1.64
2022-09-06T17:06:46.960Z,1.64
2022-09-06T17:10:46.705Z,1.64
2022-09-06T17:14:47.216Z,1.64
2022-09-06T17:18:46.549Z,1
2022-09-06T17:22:46.298Z,0.84
2022-09-06T17:26:46.655Z,0.84
2022-09-06T17:30:46.522Z,0.79
2022-09-06T17:34:46.943Z,0.79
2022-09-06T17:38:51.066Z,0.79
2022-09-06T17:42:47.098Z,0.84
2022-09-06T17:47:12.871Z,0.84
2022-09-06T17:50:46.729Z,0.84
2022-09-06T17:54:46.794Z,0.84
2022-09-06T17:58:47.441Z,0.79
2022-09-06T18:02:46.595Z,0.79
2022-09-06T18:06:46.472Z,0.84
2022-09-06T18:10:46.355Z,0.79
2022-09-06T18:14:46.642Z,0.79
2022-09-06T18:18:47.400Z,0.84
2022-09-06T18:22:47.017Z,0.84
2022-09-06T18:26:46.783Z,0.84
2022-09-06T18:30:48.818Z,0.79
2022-09-06T18:34:46.513Z,0.84
2022-09-06T18:38:46.812Z,0.84
2022-09-06T18:42:46.617Z,0.79
2022-09-06T18:46:46.887Z,0.79
2022-09-06T18:50:46.545Z,0.79
2022-09-06T18:54:46.343Z,0.79
2022-09-06T18:58:46.896Z,0.79
2022-09-06T19:02:47.249Z,0.79
2022-09-06T19:06:46.511Z,0.84
2022-09-06T19:10:46.584Z,1.06
2022-09-06T19:14:46.892Z,1.06
2022-09-06T19:18:46.872Z,1.17
2022-09-06T19:22:46.295Z,1.28
2022-09-06T19:26:46.993Z,1.28
2022-09-06T19:30:46.565Z,1.23
2022-09-06T19:34:46.830Z,1.28
2022-09-06T19:39:05.377Z,1.28
2022-09-06T19:42:46.811Z,1.28
2022-09-06T19:46:47.156Z,1.34
2022-09-06T19:50:46.833Z,1.34
2022-09-06T19:54:46.681Z,1.34
2022-09-06T19:58:47.155Z,1.4
2022-09-06T20:02:47.066Z,1.4
2022-09-06T20:06:46.866Z,1.4
2022-09-06T20:10:47.037Z,1.4
2022-09-06T20:14:46.632Z,1.4
2022-09-06T20:18:46.458Z,1.4
2022-09-06T20:22:46.290Z,1.46
2022-09-06T20:26:46.590Z,1.46
2022-09-06T20:30:46.823Z,1.46
2022-09-06T20:34:46.774Z,1.4
2022-09-06T20:38:48.463Z,1.4
2022-09-06T20:42:46.708Z,1.4
2022-09-06T20:46:47.598Z,1.4
2022-09-06T20:50:47.188Z,1.4
2022-09-06T20:54:46.600Z,1.4
2022-09-06T20:58:47.007Z,1.4
2022-09-06T21:02:46.924Z,1.4
2022-09-06T21:06:46.778Z,1.4
2022-09-06T21:10:46.906Z,1.52
2022-09-06T21:14:46.921Z,1.52
2022-09-06T21:18:46.522Z,1.52
2022-09-06T21:22:46.462Z,1.52
2022-09-06T21:26:47.187Z,1.52
2022-09-06T21:30:47.203Z,1.52
2022-09-06T21:34:50.990Z,1.52
2022-09-06T21:38:47.025Z,1.52
2022-09-06T21:42:46.628Z,1.52
2022-09-06T21:46:51.735Z,1.52
2022-09-06T21:50:46.440Z,1.52
2022-09-06T21:54:46.412Z,1.58
2022-09-06T21:58:47.127Z,1.58
2022-09-06T22:02:47.481Z,1.58
2022-09-06T22:06:47.203Z,1.58
2022-09-06T22:10:46.850Z,1.58
2022-09-06T22:14:46.213Z,1.58
2022-09-06T22:18:46.379Z,1.58
2022-09-06T22:22:46.265Z,1.58
2022-09-06T22:26:46.924Z,54.36
2022-09-06T22:30:48.479Z,54.36
2022-09-06T22:34:46.973Z,54.36
2022-09-06T22:38:46.341Z,54.36
2022-09-06T22:42:46.571Z,54.36
2022-09-06T22:46:46.869Z,54.36
2022-09-06T22:50:46.704Z,54.36
2022-09-06T22:54:47.178Z,54.36
2022-09-06T22:58:47.001Z,93.94
2022-09-06T23:02:46.623Z,93.94
2022-09-06T23:06:46.900Z,93.94
2022-09-06T23:10:47.167Z,93.94
2022-09-06T23:14:46.859Z,93.94
2022-09-06T23:18:47.103Z,93.94
2022-09-06T23:22:46.295Z,93.94
2022-09-06T23:26:46.680Z,1.46
2022-09-06T23:30:46.752Z,1.46
